sensor_id;sensor_type;location;lat;lon;timestamp;pressure;altitude;pressure_sealevel;temperature;humidity
5284;BME280;15377;48.540;9.268;2022-08-01T00:01:13;97538.91;;;18.41;100.00
5284;BME280;15377;48.540;9.268;2022-08-01T00:03:38;97532.94;;;18.26;100.00
5284;BME280;15377;48.540;9.268;2022-08-01T00:06:04;97526.66;;;18.20;100.00
5284;BME280;15377;48.540;9.268;2022-08-01T00:08:29;97524.91;;;18.17;100.00
5284;BME280;15377;48.540;9.268;2022-08-01T00:10:54;97534.19;;;18.31;100.00
5284;BME280;15377;48.540;9.268;2022-08-01T00:13:20;97518.78;;;18.24;100.00
5284;BME280;15377;48.540;9.268;2022-08-01T00:15:45;97539.09;;;18.49;100.00
5284;BME280;15377;48.540;9.268;2022-08-01T00:18:11;97525.78;;;18.36;100.00
5284;BME280;15377;48.540;9.268;2022-08-01T00:20:36;97530.38;;;18.28;100.00
5284;BME280;15377;48.540;9.268;2022-08-01T00:23:02;97543.69;;;18.11;100.00
5284;BME280;15377;48.540;9.268;2022-08-01T00:25:28;97522.06;;;17.93;100.00
5284;BME280;15377;48.540;9.268;2022-08-01T00:27:53;97537.84;;;17.85;100.00
5284;BME280;15377;48.540;9.268;2022-08-01T00:30:19;97532.59;;;17.76;100.00
5284;BME280;15377;48.540;9.268;2022-08-01T00:32:44;97532.81;;;17.78;100.00
5284;BME280;15377;48.540;9.268;2022-08-01T00:35:10;97531.53;;;17.79;100.00
5284;BME280;15377;48.540;9.268;2022-08-01T00:37:35;97535.69;;;17.67;100.00
5284;BME280;15377;48.540;9.268;2022-08-01T00:40:01;97531.75;;;17.46;100.00
5284;BME280;15377;48.540;9.268;2022-08-01T00:42:26;97532.53;;;17.41;100.00
5284;BME280;15377;48.540;9.268;2022-08-01T00:44:52;97531.53;;;17.33;100.00
5284;BME280;15377;48.540;9.268;2022-08-01T00:47:17;97545.69;;;17.35;100.00
5284;BME280;15377;48.540;9.268;2022-08-01T00:49:42;97532.56;;;17.30;100.00
5284;BME280;15377;48.540;9.268;2022-08-01T00:52:08;97544.53;;;17.14;100.00
5284;BME280;15377;48.540;9.268;2022-08-01T00:54:35;97545.59;;;17.00;100.00
5284;BME280;15377;48.540;9.268;2022-08-01T00:57:00;97543.31;;;16.99;100.00
5284;BME280;15377;48.540;9.268;2022-08-01T00:59:26;97540.53;;;16.99;100.00
5284;BME280;15377;48.540;9.268;2022-08-01T01:01:51;97522.66;;;16.83;100.00
5284;BME280;15377;48.540;9.268;2022-08-01T01:04:17;97528.00;;;16.76;100.00
5284;BME280;15377;48.540;9.268;2022-08-01T01:07:17;97539.84;;;16.76;100.00
5284;BME280;15377;48.540;9.268;2022-08-01T01:15:08;97539.38;;;16.61;100.00
5284;BME280;15377;48.540;9.268;2022-08-01T01:17:41;97532.31;;;16.44;100.00
5284;BME280;15377;48.540;9.268;2022-08-01T01:20:08;97547.75;;;16.45;100.00
5284;BME280;15377;48.540;9.268;2022-08-01T01:30:41;97544.88;;;16.83;100.00
5284;BME280;15377;48.540;9.268;2022-08-01T01:33:10;97544.63;;;16.87;100.00
5284;BME280;15377;48.540;9.268;2022-08-01T01:35:38;97543.13;;;16.75;100.00
5284;BME280;15377;48.540;9.268;2022-08-01T01:38:25;97538.88;;;16.52;100.00
5284;BME280;15377;48.540;9.268;2022-08-01T01:40:52;97545.22;;;16.52;100.00
5284;BME280;15377;48.540;9.268;2022-08-01T01:43:19;97544.44;;;16.46;100.00
5284;BME280;15377;48.540;9.268;2022-08-01T01:45:47;97555.53;;;16.68;100.00
5284;BME280;15377;48.540;9.268;2022-08-01T01:48:14;97556.75;;;16.78;100.00
5284;BME280;15377;48.540;9.268;2022-08-01T01:50:43;97550.47;;;16.72;100.00
5284;BME280;15377;48.540;9.268;2022-08-01T01:53:12;97548.22;;;16.65;100.00
5284;BME280;15377;48.540;9.268;2022-08-01T01:55:39;97535.31;;;16.62;100.00
5284;BME280;15377;48.540;9.268;2022-08-01T01:58:07;97553.50;;;16.74;100.00
5284;BME280;15377;48.540;9.268;2022-08-01T02:00:34;97566.84;;;16.92;100.00
5284;BME280;15377;48.540;9.268;2022-08-01T02:03:02;97560.44;;;17.19;100.00
5284;BME280;15377;48.540;9.268;2022-08-01T02:05:29;97559.09;;;17.37;100.00
5284;BME280;15377;48.540;9.268;2022-08-01T02:07:55;97567.63;;;17.55;100.00
5284;BME280;15377;48.540;9.268;2022-08-01T02:10:22;97570.06;;;17.70;100.00
5284;BME280;15377;48.540;9.268;2022-08-01T02:12:49;97566.50;;;17.75;100.00
5284;BME280;15377;48.540;9.268;2022-08-01T02:15:15;97576.56;;;17.83;100.00
5284;BME280;15377;48.540;9.268;2022-08-01T02:17:46;97570.28;;;17.77;100.00
5284;BME280;15377;48.540;9.268;2022-08-01T02:20:12;97568.78;;;17.76;100.00
5284;BME280;15377;48.540;9.268;2022-08-01T02:23:01;97577.41;;;17.73;100.00
5284;BME280;15377;48.540;9.268;2022-08-01T02:25:34;97578.94;;;17.68;100.00
5284;BME280;15377;48.540;9.268;2022-08-01T02:28:04;97573.38;;;17.68;100.00
5284;BME280;15377;48.540;9.268;2022-08-01T02:30:38;97571.63;;;17.60;100.00
5284;BME280;15377;48.540;9.268;2022-08-01T02:33:27;97568.38;;;17.50;100.00
5284;BME280;15377;48.540;9.268;2022-08-01T02:35:59;97552.50;;;17.45;100.00
5284;BME280;15377;48.540;9.268;2022-08-01T02:38:28;97582.50;;;17.63;100.00
5284;BME280;15377;48.540;9.268;2022-08-01T02:40:59;97567.59;;;17.61;100.00
5284;BME280;15377;48.540;9.268;2022-08-01T02:43:30;97560.50;;;17.60;100.00
5284;BME280;15377;48.540;9.268;2022-08-01T02:46:00;97571.38;;;17.63;100.00
5284;BME280;15377;48.540;9.268;2022-08-01T02:48:26;97557.75;;;17.54;100.00
5284;BME280;15377;48.540;9.268;2022-08-01T02:50:57;97563.31;;;17.54;100.00
5284;BME280;15377;48.540;9.268;2022-08-01T02:53:25;97575.47;;;17.57;100.00
5284;BME280;15377;48.540;9.268;2022-08-01T02:55:53;97578.97;;;17.57;100.00
5284;BME280;15377;48.540;9.268;2022-08-01T02:58:20;97576.75;;;17.56;100.00
5284;BME280;15377;48.540;9.268;2022-08-01T03:00:49;97565.66;;;17.45;100.00
5284;BME280;15377;48.540;9.268;2022-08-01T03:03:16;97569.41;;;17.53;100.00
5284;BME280;15377;48.540;9.268;2022-08-01T03:05:42;97569.94;;;17.51;100.00
5284;BME280;15377;48.540;9.268;2022-08-01T03:08:09;97557.56;;;17.41;100.00
5284;BME280;15377;48.540;9.268;2022-08-01T03:10:37;97578.06;;;17.38;100.00
5284;BME280;15377;48.540;9.268;2022-08-01T03:13:04;97569.56;;;17.14;100.00
5284;BME280;15377;48.540;9.268;2022-08-01T03:15:32;97550.38;;;17.05;100.00
5284;BME280;15377;48.540;9.268;2022-08-01T03:17:59;97559.72;;;17.08;100.00
5284;BME280;15377;48.540;9.268;2022-08-01T03:20:27;97555.44;;;17.01;100.00
5284;BME280;15377;48.540;9.268;2022-08-01T03:22:54;97556.41;;;17.09;100.00
5284;BME280;15377;48.540;9.268;2022-08-01T03:25:21;97565.25;;;17.13;100.00
5284;BME280;15377;48.540;9.268;2022-08-01T03:27:54;97565.00;;;17.17;100.00
5284;BME280;15377;48.540;9.268;2022-08-01T03:30:22;97557.16;;;17.15;100.00
5284;BME280;15377;48.540;9.268;2022-08-01T03:32:48;97566.00;;;17.19;100.00
5284;BME280;15377;48.540;9.268;2022-08-01T03:35:13;97564.00;;;17.14;100.00
5284;BME280;15377;48.540;9.268;2022-08-01T03:37:45;97577.19;;;16.97;100.00
5284;BME280;15377;48.540;9.268;2022-08-01T03:40:28;97571.66;;;16.92;100.00
5284;BME280;15377;48.540;9.268;2022-08-01T03:43:02;97577.72;;;16.90;100.00
5284;BME280;15377;48.540;9.268;2022-08-01T03:45:35;97570.13;;;16.85;100.00
5284;BME280;15377;48.540;9.268;2022-08-01T03:48:05;97572.19;;;16.85;100.00
5284;BME280;15377;48.540;9.268;2022-08-01T03:50:32;97564.09;;;16.81;100.00
5284;BME280;15377;48.540;9.268;2022-08-01T03:53:01;97571.16;;;16.82;100.00
5284;BME280;15377;48.540;9.268;2022-08-01T03:55:28;97568.38;;;16.82;100.00
5284;BME280;15377;48.540;9.268;2022-08-01T03:57:55;97567.38;;;16.80;100.00
5284;BME280;15377;48.540;9.268;2022-08-01T04:00:21;97574.19;;;16.84;100.00
5284;BME280;15377;48.540;9.268;2022-08-01T04:02:48;97577.22;;;16.86;100.00
5284;BME280;15377;48.540;9.268;2022-08-01T04:05:17;97573.72;;;16.80;100.00
5284;BME280;15377;48.540;9.268;2022-08-01T04:07:50;97577.72;;;16.90;100.00
5284;BME280;15377;48.540;9.268;2022-08-01T04:10:21;97571.66;;;16.86;100.00
5284;BME280;15377;48.540;9.268;2022-08-01T04:12:48;97549.47;;;16.75;100.00
5284;BME280;15377;48.540;9.268;2022-08-01T04:15:13;97584.53;;;16.95;100.00
5284;BME280;15377;48.540;9.268;2022-08-01T04:17:39;97585.31;;;16.95;100.00
5284;BME280;15377;48.540;9.268;2022-08-01T04:20:05;97581.50;;;16.87;100.00
5284;BME280;15377;48.540;9.268;2022-08-01T04:22:30;97588.84;;;16.90;100.00
5284;BME280;15377;48.540;9.268;2022-08-01T04:24:57;97595.38;;;16.98;100.00
5284;BME280;15377;48.540;9.268;2022-08-01T04:27:29;97594.13;;;16.94;100.00
5284;BME280;15377;48.540;9.268;2022-08-01T04:29:58;97605.00;;;16.97;100.00
5284;BME280;15377;48.540;9.268;2022-08-01T04:32:25;97596.66;;;16.97;100.00
5284;BME280;15377;48.540;9.268;2022-08-01T04:34:54;97604.75;;;16.95;100.00
5284;BME280;15377;48.540;9.268;2022-08-01T04:37:22;97575.75;;;16.74;100.00
5284;BME280;15377;48.540;9.268;2022-08-01T04:39:49;97598.44;;;16.89;100.00
5284;BME280;15377;48.540;9.268;2022-08-01T04:42:17;97604.50;;;16.93;100.00
5284;BME280;15377;48.540;9.268;2022-08-01T04:44:43;97605.00;;;16.97;100.00
5284;BME280;15377;48.540;9.268;2022-08-01T04:47:09;97597.69;;;16.89;100.00
5284;BME280;15377;48.540;9.268;2022-08-01T04:49:35;97610.59;;;16.75;100.00
5284;BME280;15377;48.540;9.268;2022-08-01T04:52:01;97610.84;;;16.77;100.00
5284;BME280;15377;48.540;9.268;2022-08-01T04:54:27;97607.09;;;16.58;100.00
5284;BME280;15377;48.540;9.268;2022-08-01T04:56:56;97605.56;;;16.57;100.00
5284;BME280;15377;48.540;9.268;2022-08-01T04:59:28;97613.41;;;16.53;100.00
5284;BME280;15377;48.540;9.268;2022-08-01T05:02:15;97619.19;;;16.33;100.00
5284;BME280;15377;48.540;9.268;2022-08-01T05:04:42;97611.38;;;16.21;100.00
5284;BME280;15377;48.540;9.268;2022-08-01T05:07:08;97612.34;;;16.23;100.00
5284;BME280;15377;48.540;9.268;2022-08-01T05:09:35;97614.38;;;16.34;100.00
5284;BME280;15377;48.540;9.268;2022-08-01T05:12:04;97596.22;;;16.44;100.00
5284;BME280;15377;48.540;9.268;2022-08-01T05:14:31;97579.31;;;16.53;100.00
5284;BME280;15377;48.540;9.268;2022-08-01T05:16:58;97582.78;;;16.86;100.00
5284;BME280;15377;48.540;9.268;2022-08-01T05:19:24;97603.66;;;17.26;100.00
5284;BME280;15377;48.540;9.268;2022-08-01T05:21:50;97605.56;;;17.53;100.00
5284;BME280;15377;48.540;9.268;2022-08-01T05:24:15;97625.69;;;17.81;100.00
5284;BME280;15377;48.540;9.268;2022-08-01T05:26:40;97620.97;;;18.05;100.00
5284;BME280;15377;48.540;9.268;2022-08-01T05:29:06;97622.09;;;18.26;100.00
5284;BME280;15377;48.540;9.268;2022-08-01T05:31:31;97603.25;;;18.43;100.00
5284;BME280;15377;48.540;9.268;2022-08-01T05:34:00;97609.91;;;18.64;100.00
5284;BME280;15377;48.540;9.268;2022-08-01T05:36:26;97593.34;;;18.72;100.00
5284;BME280;15377;48.540;9.268;2022-08-01T05:38:51;97610.84;;;18.96;100.00
5284;BME280;15377;48.540;9.268;2022-08-01T05:41:16;97615.28;;;19.10;100.00
5284;BME280;15377;48.540;9.268;2022-08-01T05:43:42;97612.44;;;19.15;100.00
5284;BME280;15377;48.540;9.268;2022-08-01T05:46:07;97616.94;;;19.24;100.00
5284;BME280;15377;48.540;9.268;2022-08-01T05:48:32;97610.22;;;19.32;100.00
5284;BME280;15377;48.540;9.268;2022-08-01T05:50:58;97618.72;;;19.45;100.00
5284;BME280;15377;48.540;9.268;2022-08-01T05:53:23;97614.78;;;19.54;100.00
5284;BME280;15377;48.540;9.268;2022-08-01T05:55:48;97619.56;;;19.59;100.00
5284;BME280;15377;48.540;9.268;2022-08-01T05:58:14;97616.97;;;19.61;100.00
5284;BME280;15377;48.540;9.268;2022-08-01T06:00:39;97613.59;;;19.68;100.00
5284;BME280;15377;48.540;9.268;2022-08-01T06:03:05;97591.56;;;19.64;100.00
5284;BME280;15377;48.540;9.268;2022-08-01T06:05:30;97608.00;;;19.86;100.00
5284;BME280;15377;48.540;9.268;2022-08-01T06:07:56;97596.97;;;19.94;100.00
5284;BME280;15377;48.540;9.268;2022-08-01T06:10:21;97601.94;;;20.01;100.00
5284;BME280;15377;48.540;9.268;2022-08-01T06:12:47;97616.31;;;20.29;100.00
5284;BME280;15377;48.540;9.268;2022-08-01T06:15:12;97613.78;;;20.44;100.00
5284;BME280;15377;48.540;9.268;2022-08-01T06:17:37;97624.44;;;20.45;100.00
5284;BME280;15377;48.540;9.268;2022-08-01T06:20:04;97618.97;;;20.53;100.00
5284;BME280;15377;48.540;9.268;2022-08-01T06:22:31;97616.84;;;20.59;100.00
5284;BME280;15377;48.540;9.268;2022-08-01T06:24:57;97617.16;;;20.55;100.00
5284;BME280;15377;48.540;9.268;2022-08-01T06:27:22;97626.94;;;20.62;100.00
5284;BME280;15377;48.540;9.268;2022-08-01T06:29:50;97616.09;;;20.58;100.00
5284;BME280;15377;48.540;9.268;2022-08-01T06:32:18;97626.31;;;20.69;100.00
5284;BME280;15377;48.540;9.268;2022-08-01T06:34:44;97627.41;;;20.79;100.00
5284;BME280;15377;48.540;9.268;2022-08-01T06:37:09;97619.31;;;20.94;100.00
5284;BME280;15377;48.540;9.268;2022-08-01T06:39:34;97634.94;;;21.15;100.00
5284;BME280;15377;48.540;9.268;2022-08-01T06:42:00;97630.66;;;21.27;100.00
5284;BME280;15377;48.540;9.268;2022-08-01T06:44:25;97624.41;;;21.34;100.00
5284;BME280;15377;48.540;9.268;2022-08-01T06:46:51;97622.47;;;21.42;100.00
5284;BME280;15377;48.540;9.268;2022-08-01T06:49:16;97625.03;;;21.53;100.00
5284;BME280;15377;48.540;9.268;2022-08-01T06:51:41;97620.19;;;21.54;100.00
5284;BME280;15377;48.540;9.268;2022-08-01T06:54:07;97616.31;;;21.70;100.00
5284;BME280;15377;48.540;9.268;2022-08-01T06:56:32;97631.06;;;21.83;100.00
5284;BME280;15377;48.540;9.268;2022-08-01T06:59:00;97627.91;;;22.00;100.00
5284;BME280;15377;48.540;9.268;2022-08-01T07:01:27;97623.13;;;22.08;100.00
5284;BME280;15377;48.540;9.268;2022-08-01T07:03:53;97630.75;;;22.20;100.00
5284;BME280;15377;48.540;9.268;2022-08-01T07:06:18;97615.00;;;22.17;100.00
5284;BME280;15377;48.540;9.268;2022-08-01T07:08:44;97624.00;;;22.03;100.00
5284;BME280;15377;48.540;9.268;2022-08-01T07:11:09;97613.00;;;22.05;100.00
5284;BME280;15377;48.540;9.268;2022-08-01T07:13:35;97611.69;;;22.06;100.00
5284;BME280;15377;48.540;9.268;2022-08-01T07:16:00;97627.59;;;22.24;100.00
5284;BME280;15377;48.540;9.268;2022-08-01T07:18:25;97623.03;;;22.34;100.00
5284;BME280;15377;48.540;9.268;2022-08-01T07:20:54;97625.06;;;22.46;100.00
5284;BME280;15377;48.540;9.268;2022-08-01T07:23:19;97623.69;;;22.60;100.00
5284;BME280;15377;48.540;9.268;2022-08-01T07:25:44;97622.25;;;22.67;100.00
5284;BME280;15377;48.540;9.268;2022-08-01T07:28:10;97624.53;;;22.68;100.00
5284;BME280;15377;48.540;9.268;2022-08-01T07:30:35;97628.19;;;22.84;100.00
5284;BME280;15377;48.540;9.268;2022-08-01T07:33:01;97632.50;;;22.85;100.00
5284;BME280;15377;48.540;9.268;2022-08-01T07:35:27;97628.31;;;22.98;100.00
5284;BME280;15377;48.540;9.268;2022-08-01T07:37:52;97617.28;;;23.00;100.00
5284;BME280;15377;48.540;9.268;2022-08-01T07:40:18;97636.06;;;23.05;100.00
5284;BME280;15377;48.540;9.268;2022-08-01T07:42:44;97628.59;;;23.08;100.00
5284;BME280;15377;48.540;9.268;2022-08-01T07:45:10;97623.47;;;23.19;100.00
5284;BME280;15377;48.540;9.268;2022-08-01T07:47:36;97623.50;;;23.27;100.00
5284;BME280;15377;48.540;9.268;2022-08-01T07:50:04;97628.13;;;23.45;100.00
5284;BME280;15377;48.540;9.268;2022-08-01T07:52:30;97635.63;;;23.50;100.00
5284;BME280;15377;48.540;9.268;2022-08-01T07:54:56;97624.81;;;23.61;100.00
5284;BME280;15377;48.540;9.268;2022-08-01T07:57:23;97616.44;;;23.69;100.00
5284;BME280;15377;48.540;9.268;2022-08-01T07:59:49;97623.78;;;23.79;100.00
5284;BME280;15377;48.540;9.268;2022-08-01T08:02:14;97625.34;;;23.88;100.00
5284;BME280;15377;48.540;9.268;2022-08-01T08:04:40;97620.50;;;23.96;100.00
5284;BME280;15377;48.540;9.268;2022-08-01T08:07:06;97619.75;;;23.95;100.00
5284;BME280;15377;48.540;9.268;2022-08-01T08:09:31;97613.03;;;23.98;100.00
5284;BME280;15377;48.540;9.268;2022-08-01T08:11:57;97608.34;;;24.01;100.00
5284;BME280;15377;48.540;9.268;2022-08-01T08:14:22;97624.16;;;24.19;100.00
5284;BME280;15377;48.540;9.268;2022-08-01T08:16:49;97618.53;;;24.26;100.00
5284;BME280;15377;48.540;9.268;2022-08-01T08:19:15;97624.38;;;24.28;100.00
5284;BME280;15377;48.540;9.268;2022-08-01T08:21:40;97624.00;;;24.32;100.00
5284;BME280;15377;48.540;9.268;2022-08-01T08:24:07;97609.38;;;24.26;100.00
5284;BME280;15377;48.540;9.268;2022-08-01T08:26:45;97625.16;;;24.36;100.00
5284;BME280;15377;48.540;9.268;2022-08-01T08:29:10;97615.53;;;24.24;100.00
5284;BME280;15377;48.540;9.268;2022-08-01T08:31:36;97615.34;;;24.30;100.00
5284;BME280;15377;48.540;9.268;2022-08-01T08:34:02;97612.75;;;24.39;100.00
5284;BME280;15377;48.540;9.268;2022-08-01T08:36:27;97619.53;;;24.36;100.00
5284;BME280;15377;48.540;9.268;2022-08-01T08:38:52;97620.91;;;24.58;100.00
5284;BME280;15377;48.540;9.268;2022-08-01T08:41:18;97610.59;;;24.60;100.00
5284;BME280;15377;48.540;9.268;2022-08-01T08:43:43;97622.97;;;24.72;100.00
5284;BME280;15377;48.540;9.268;2022-08-01T08:46:11;97614.72;;;24.89;100.00
5284;BME280;15377;48.540;9.268;2022-08-01T08:48:40;97611.53;;;25.00;100.00
5284;BME280;15377;48.540;9.268;2022-08-01T08:51:05;97610.97;;;25.24;100.00
5284;BME280;15377;48.540;9.268;2022-08-01T08:53:35;97607.53;;;25.41;100.00
5284;BME280;15377;48.540;9.268;2022-08-01T08:56:02;97608.81;;;25.62;100.00
5284;BME280;15377;48.540;9.268;2022-08-01T08:58:29;97599.91;;;25.81;100.00
5284;BME280;15377;48.540;9.268;2022-08-01T09:00:59;97623.22;;;25.81;100.00
5284;BME280;15377;48.540;9.268;2022-08-01T09:03:25;97614.94;;;25.91;100.00
5284;BME280;15377;48.540;9.268;2022-08-01T09:05:50;97607.75;;;25.97;100.00
5284;BME280;15377;48.540;9.268;2022-08-01T09:08:15;97613.28;;;26.20;100.00
5284;BME280;15377;48.540;9.268;2022-08-01T09:10:41;97593.38;;;26.18;100.00
5284;BME280;15377;48.540;9.268;2022-08-01T09:13:10;97603.44;;;26.36;100.00
5284;BME280;15377;48.540;9.268;2022-08-01T09:15:39;97610.13;;;26.48;100.00
5284;BME280;15377;48.540;9.268;2022-08-01T09:18:06;97618.91;;;26.59;100.00
5284;BME280;15377;48.540;9.268;2022-08-01T09:20:31;97613.44;;;26.61;100.00
5284;BME280;15377;48.540;9.268;2022-08-01T09:22:57;97614.03;;;26.84;100.00
5284;BME280;15377;48.540;9.268;2022-08-01T09:25:22;97613.91;;;26.99;100.00
5284;BME280;15377;48.540;9.268;2022-08-01T09:27:47;97605.66;;;26.94;100.00
5284;BME280;15377;48.540;9.268;2022-08-01T09:30:15;97619.44;;;26.65;100.00
5284;BME280;15377;48.540;9.268;2022-08-01T09:33:01;97604.56;;;26.89;100.00
5284;BME280;15377;48.540;9.268;2022-08-01T09:35:30;97596.28;;;26.91;100.00
5284;BME280;15377;48.540;9.268;2022-08-01T09:38:20;97602.50;;;27.14;100.00
5284;BME280;15377;48.540;9.268;2022-08-01T09:41:11;97606.50;;;27.28;100.00
5284;BME280;15377;48.540;9.268;2022-08-01T09:43:37;97596.19;;;27.23;100.00
5284;BME280;15377;48.540;9.268;2022-08-01T09:46:10;97602.31;;;27.53;100.00
5284;BME280;15377;48.540;9.268;2022-08-01T09:48:54;97584.75;;;27.89;100.00
5284;BME280;15377;48.540;9.268;2022-08-01T09:51:34;97595.19;;;27.96;97.33
5284;BME280;15377;48.540;9.268;2022-08-01T09:54:00;97597.16;;;28.37;98.04
5284;BME280;15377;48.540;9.268;2022-08-01T09:56:36;97598.78;;;28.40;97.36
5284;BME280;15377;48.540;9.268;2022-08-01T09:59:01;97577.13;;;28.52;93.58
5284;BME280;15377;48.540;9.268;2022-08-01T10:01:28;97599.91;;;28.90;93.57
5284;BME280;15377;48.540;9.268;2022-08-01T10:06:38;97592.34;;;29.66;89.29
5284;BME280;15377;48.540;9.268;2022-08-01T10:09:04;97583.00;;;30.42;83.62
5284;BME280;15377;48.540;9.268;2022-08-01T10:11:29;97580.88;;;30.52;78.96
5284;BME280;15377;48.540;9.268;2022-08-01T10:13:57;97562.34;;;30.51;80.91
5284;BME280;15377;48.540;9.268;2022-08-01T10:16:25;97579.25;;;31.19;77.33
5284;BME280;15377;48.540;9.268;2022-08-01T10:18:53;97570.94;;;30.72;79.70
5284;BME280;15377;48.540;9.268;2022-08-01T10:21:19;97575.59;;;30.18;80.72
5284;BME280;15377;48.540;9.268;2022-08-01T10:23:46;97571.13;;;29.77;82.58
5284;BME280;15377;48.540;9.268;2022-08-01T10:26:12;97564.50;;;29.08;84.87
5284;BME280;15377;48.540;9.268;2022-08-01T10:28:40;97566.16;;;29.20;85.97
5284;BME280;15377;48.540;9.268;2022-08-01T10:31:07;97560.31;;;31.03;82.19
5284;BME280;15377;48.540;9.268;2022-08-01T10:33:33;97550.06;;;31.61;78.16
5284;BME280;15377;48.540;9.268;2022-08-01T10:36:02;97558.81;;;31.74;74.96
5284;BME280;15377;48.540;9.268;2022-08-01T10:38:27;97556.44;;;31.71;72.61
5284;BME280;15377;48.540;9.268;2022-08-01T10:40:56;97557.47;;;31.33;72.86
5284;BME280;15377;48.540;9.268;2022-08-01T10:43:22;97547.63;;;31.25;75.15
5284;BME280;15377;48.540;9.268;2022-08-01T10:45:48;97551.63;;;30.80;75.12
5284;BME280;15377;48.540;9.268;2022-08-01T10:50:49;97550.78;;;32.81;69.60
5284;BME280;15377;48.540;9.268;2022-08-01T10:53:23;97559.00;;;34.19;65.60
5284;BME280;15377;48.540;9.268;2022-08-01T10:58:25;97553.13;;;33.19;60.58
5284;BME280;15377;48.540;9.268;2022-08-01T11:01:17;97554.28;;;31.60;63.66
5284;BME280;15377;48.540;9.268;2022-08-01T11:04:11;97547.03;;;30.75;66.66
5284;BME280;15377;48.540;9.268;2022-08-01T11:06:51;97549.91;;;29.97;71.25
5284;BME280;15377;48.540;9.268;2022-08-01T11:09:24;97546.31;;;29.30;76.52
5284;BME280;15377;48.540;9.268;2022-08-01T11:17:39;97542.56;;;28.10;81.30
5284;BME280;15377;48.540;9.268;2022-08-01T11:20:14;97545.63;;;27.95;84.02
5284;BME280;15377;48.540;9.268;2022-08-01T11:30:47;97537.56;;;28.44;85.28
5284;BME280;15377;48.540;9.268;2022-08-01T11:33:15;97552.78;;;28.49;86.25
5284;BME280;15377;48.540;9.268;2022-08-01T11:38:38;97544.66;;;27.66;89.33
5284;BME280;15377;48.540;9.268;2022-08-01T11:41:17;97532.28;;;27.28;91.20
5284;BME280;15377;48.540;9.268;2022-08-01T11:44:14;97538.19;;;27.39;93.01
5284;BME280;15377;48.540;9.268;2022-08-01T11:57:15;97530.16;;;27.79;91.27
5284;BME280;15377;48.540;9.268;2022-08-01T11:59:44;97539.25;;;27.77;91.79
5284;BME280;15377;48.540;9.268;2022-08-01T12:02:16;97521.63;;;27.52;93.31
5284;BME280;15377;48.540;9.268;2022-08-01T12:04:53;97541.91;;;27.75;94.37
5284;BME280;15377;48.540;9.268;2022-08-01T12:07:20;97537.31;;;27.80;94.65
5284;BME280;15377;48.540;9.268;2022-08-01T12:09:46;97529.78;;;28.09;93.30
5284;BME280;15377;48.540;9.268;2022-08-01T12:12:16;97527.63;;;28.00;91.22
5284;BME280;15377;48.540;9.268;2022-08-01T12:14:43;97527.84;;;28.11;93.07
5284;BME280;15377;48.540;9.268;2022-08-01T12:17:08;97523.69;;;28.12;91.62
5284;BME280;15377;48.540;9.268;2022-08-01T12:19:33;97524.19;;;28.28;90.62
5284;BME280;15377;48.540;9.268;2022-08-01T12:22:10;97518.75;;;28.39;90.98
5284;BME280;15377;48.540;9.268;2022-08-01T12:24:37;97510.00;;;28.45;91.08
5284;BME280;15377;48.540;9.268;2022-08-01T12:27:05;97514.47;;;28.48;91.31
5284;BME280;15377;48.540;9.268;2022-08-01T12:29:36;97517.47;;;28.50;91.31
5284;BME280;15377;48.540;9.268;2022-08-01T12:32:02;97512.56;;;28.50;90.62
5284;BME280;15377;48.540;9.268;2022-08-01T12:34:28;97494.31;;;28.08;89.00
5284;BME280;15377;48.540;9.268;2022-08-01T12:36:58;97493.78;;;27.92;90.88
5284;BME280;15377;48.540;9.268;2022-08-01T12:39:43;97515.13;;;28.03;89.72
5284;BME280;15377;48.540;9.268;2022-08-01T12:42:09;97514.91;;;28.90;88.78
5284;BME280;15377;48.540;9.268;2022-08-01T12:44:36;97506.47;;;31.26;83.67
5284;BME280;15377;48.540;9.268;2022-08-01T12:47:05;97505.78;;;32.91;75.63
5284;BME280;15377;48.540;9.268;2022-08-01T12:49:35;97509.91;;;34.48;67.51
5284;BME280;15377;48.540;9.268;2022-08-01T12:52:01;97490.00;;;34.11;64.54
5284;BME280;15377;48.540;9.268;2022-08-01T12:54:26;97490.31;;;34.42;60.44
5284;BME280;15377;48.540;9.268;2022-08-01T12:56:52;97495.94;;;34.67;61.94
5284;BME280;15377;48.540;9.268;2022-08-01T12:59:25;97489.50;;;35.07;59.10
5284;BME280;15377;48.540;9.268;2022-08-01T13:01:55;97476.38;;;35.87;57.15
5284;BME280;15377;48.540;9.268;2022-08-01T13:04:22;97481.75;;;36.70;54.69
5284;BME280;15377;48.540;9.268;2022-08-01T13:06:51;97482.78;;;35.30;56.00
5284;BME280;15377;48.540;9.268;2022-08-01T13:09:18;97480.78;;;35.32;55.34
5284;BME280;15377;48.540;9.268;2022-08-01T13:11:43;97485.91;;;36.07;54.67
5284;BME280;15377;48.540;9.268;2022-08-01T13:14:26;97482.75;;;36.15;52.13
5284;BME280;15377;48.540;9.268;2022-08-01T13:16:52;97480.31;;;37.02;50.65
5284;BME280;15377;48.540;9.268;2022-08-01T13:19:17;97465.41;;;37.38;52.00
5284;BME280;15377;48.540;9.268;2022-08-01T13:21:56;97486.47;;;37.95;46.87
5284;BME280;15377;48.540;9.268;2022-08-01T13:24:27;97480.22;;;37.33;49.18
5284;BME280;15377;48.540;9.268;2022-08-01T13:27:02;97485.81;;;37.29;47.26
5284;BME280;15377;48.540;9.268;2022-08-01T13:29:35;97475.72;;;36.80;48.88
5284;BME280;15377;48.540;9.268;2022-08-01T13:32:20;97466.16;;;35.98;48.93
5284;BME280;15377;48.540;9.268;2022-08-01T13:34:45;97464.84;;;35.85;50.04
5284;BME280;15377;48.540;9.268;2022-08-01T13:37:11;97464.44;;;36.84;47.87
5284;BME280;15377;48.540;9.268;2022-08-01T13:39:36;97469.44;;;36.52;47.96
5284;BME280;15377;48.540;9.268;2022-08-01T13:42:14;97471.44;;;35.74;46.85
5284;BME280;15377;48.540;9.268;2022-08-01T13:44:41;97472.09;;;35.30;46.10
5284;BME280;15377;48.540;9.268;2022-08-01T13:47:07;97476.75;;;34.56;50.75
5284;BME280;15377;48.540;9.268;2022-08-01T13:49:33;97471.00;;;34.29;53.23
5284;BME280;15377;48.540;9.268;2022-08-01T13:51:59;97461.69;;;33.90;52.99
5284;BME280;15377;48.540;9.268;2022-08-01T13:54:25;97467.59;;;33.69;53.63
5284;BME280;15377;48.540;9.268;2022-08-01T13:56:51;97463.91;;;33.30;53.54